sensor_id;sensor_type;location;lat;lon;timestamp;P1;durP1;ratioP1;P2;durP2;ratioP2
33266;SDS011;19638;49.080;11.896;2023-02-13T00:02:52;600.40;;;42.30;;
33266;SDS011;19638;49.080;11.896;2023-02-13T00:06:55;528.07;;;38.00;;
33266;SDS011;19638;49.080;11.896;2023-02-13T00:10:58;654.47;;;46.70;;
33266;SDS011;19638;49.080;11.896;2023-02-13T00:15:02;394.37;;;33.33;;
33266;SDS011;19638;49.080;11.896;2023-02-13T00:19:10;777.07;;;51.50;;
33266;SDS011;19638;49.080;11.896;2023-02-13T00:23:16;716.43;;;48.57;;
33266;SDS011;19638;49.080;11.896;2023-02-13T00:27:22;738.67;;;53.37;;
33266;SDS011;19638;49.080;11.896;2023-02-13T00:31:27;781.57;;;53.27;;
33266;SDS011;19638;49.080;11.896;2023-02-13T00:35:31;745.00;;;55.30;;
33266;SDS011;19638;49.080;11.896;2023-02-13T00:39:35;845.00;;;55.13;;
33266;SDS011;19638;49.080;11.896;2023-02-13T00:43:38;744.50;;;54.10;;
33266;SDS011;19638;49.080;11.896;2023-02-13T00:47:41;836.23;;;59.07;;
33266;SDS011;19638;49.080;11.896;2023-02-13T00:51:58;780.67;;;55.73;;
33266;SDS011;19638;49.080;11.896;2023-02-13T00:56:04;777.50;;;55.13;;
33266;SDS011;19638;49.080;11.896;2023-02-13T01:00:09;706.83;;;49.97;;
33266;SDS011;19638;49.080;11.896;2023-02-13T01:04:14;773.10;;;51.83;;
33266;SDS011;19638;49.080;11.896;2023-02-13T01:08:22;526.43;;;42.07;;
33266;SDS011;19638;49.080;11.896;2023-02-13T01:12:28;818.17;;;58.13;;
33266;SDS011;19638;49.080;11.896;2023-02-13T01:16:32;724.43;;;50.00;;
33266;SDS011;19638;49.080;11.896;2023-02-13T01:20:35;691.50;;;50.17;;
33266;SDS011;19638;49.080;11.896;2023-02-13T01:24:39;597.40;;;45.87;;
33266;SDS011;19638;49.080;11.896;2023-02-13T01:28:47;735.77;;;50.03;;
33266;SDS011;19638;49.080;11.896;2023-02-13T01:32:57;718.63;;;53.03;;
33266;SDS011;19638;49.080;11.896;2023-02-13T01:37:01;598.83;;;45.37;;
33266;SDS011;19638;49.080;11.896;2023-02-13T01:41:06;585.07;;;42.27;;
33266;SDS011;19638;49.080;11.896;2023-02-13T01:45:21;619.03;;;43.97;;
33266;SDS011;19638;49.080;11.896;2023-02-13T01:49:26;541.70;;;42.30;;
33266;SDS011;19638;49.080;11.896;2023-02-13T01:53:40;507.53;;;39.57;;
33266;SDS011;19638;49.080;11.896;2023-02-13T01:57:50;691.20;;;48.37;;
33266;SDS011;19638;49.080;11.896;2023-02-13T02:01:58;502.57;;;36.70;;
33266;SDS011;19638;49.080;11.896;2023-02-13T02:06:02;373.77;;;31.90;;
33266;SDS011;19638;49.080;11.896;2023-02-13T02:10:10;600.13;;;43.93;;
33266;SDS011;19638;49.080;11.896;2023-02-13T02:14:18;741.60;;;54.53;;
33266;SDS011;19638;49.080;11.896;2023-02-13T02:18:22;767.33;;;51.17;;
33266;SDS011;19638;49.080;11.896;2023-02-13T02:27:14;765.97;;;52.90;;
33266;SDS011;19638;49.080;11.896;2023-02-13T02:31:48;903.37;;;58.30;;
33266;SDS011;19638;49.080;11.896;2023-02-13T02:36:08;704.30;;;47.77;;
33266;SDS011;19638;49.080;11.896;2023-02-13T02:40:25;751.60;;;50.73;;
33266;SDS011;19638;49.080;11.896;2023-02-13T02:44:38;735.57;;;49.23;;
33266;SDS011;19638;49.080;11.896;2023-02-13T02:48:52;644.67;;;45.27;;
33266;SDS011;19638;49.080;11.896;2023-02-13T02:53:17;620.33;;;42.73;;
33266;SDS011;19638;49.080;11.896;2023-02-13T02:57:31;524.80;;;37.17;;
33266;SDS011;19638;49.080;11.896;2023-02-13T03:01:51;494.47;;;34.17;;
33266;SDS011;19638;49.080;11.896;2023-02-13T03:06:15;492.53;;;36.03;;
33266;SDS011;19638;49.080;11.896;2023-02-13T03:10:24;354.77;;;31.80;;
33266;SDS011;19638;49.080;11.896;2023-02-13T03:14:51;292.43;;;28.77;;
33266;SDS011;19638;49.080;11.896;2023-02-13T03:18:54;170.33;;;25.53;;
33266;SDS011;19638;49.080;11.896;2023-02-13T03:23:19;288.73;;;29.77;;
33266;SDS011;19638;49.080;11.896;2023-02-13T03:27:32;156.83;;;25.23;;
33266;SDS011;19638;49.080;11.896;2023-02-13T03:32:05;260.53;;;29.03;;
33266;SDS011;19638;49.080;11.896;2023-02-13T03:36:16;339.27;;;31.90;;
33266;SDS011;19638;49.080;11.896;2023-02-13T03:40:48;412.63;;;34.73;;
33266;SDS011;19638;49.080;11.896;2023-02-13T03:45:12;201.57;;;26.03;;
33266;SDS011;19638;49.080;11.896;2023-02-13T03:49:37;239.40;;;30.00;;
33266;SDS011;19638;49.080;11.896;2023-02-13T03:54:03;165.03;;;24.23;;
33266;SDS011;19638;49.080;11.896;2023-02-13T03:58:20;155.43;;;24.83;;
33266;SDS011;19638;49.080;11.896;2023-02-13T04:02:50;88.17;;;21.07;;
33266;SDS011;19638;49.080;11.896;2023-02-13T04:07:01;90.07;;;22.30;;
33266;SDS011;19638;49.080;11.896;2023-02-13T04:11:14;109.83;;;21.13;;
33266;SDS011;19638;49.080;11.896;2023-02-13T04:15:25;95.60;;;21.40;;
33266;SDS011;19638;49.080;11.896;2023-02-13T04:19:32;86.17;;;20.77;;
33266;SDS011;19638;49.080;11.896;2023-02-13T04:23:39;96.63;;;20.23;;
33266;SDS011;19638;49.080;11.896;2023-02-13T04:27:42;86.87;;;20.63;;
33266;SDS011;19638;49.080;11.896;2023-02-13T04:31:47;93.97;;;20.37;;
33266;SDS011;19638;49.080;11.896;2023-02-13T04:35:50;77.13;;;20.00;;
33266;SDS011;19638;49.080;11.896;2023-02-13T04:39:53;81.17;;;19.87;;
33266;SDS011;19638;49.080;11.896;2023-02-13T04:43:56;65.20;;;18.97;;
33266;SDS011;19638;49.080;11.896;2023-02-13T04:48:02;71.47;;;18.23;;
33266;SDS011;19638;49.080;11.896;2023-02-13T04:52:05;63.00;;;18.23;;
33266;SDS011;19638;49.080;11.896;2023-02-13T04:56:11;73.53;;;18.47;;
33266;SDS011;19638;49.080;11.896;2023-02-13T05:00:14;67.70;;;17.97;;
33266;SDS011;19638;49.080;11.896;2023-02-13T05:04:30;66.13;;;19.17;;
33266;SDS011;19638;49.080;11.896;2023-02-13T05:08:35;57.70;;;18.00;;
33266;SDS011;19638;49.080;11.896;2023-02-13T05:12:38;71.07;;;19.67;;
33266;SDS011;19638;49.080;11.896;2023-02-13T05:16:43;71.30;;;18.90;;
33266;SDS011;19638;49.080;11.896;2023-02-13T05:20:51;61.63;;;18.23;;
33266;SDS011;19638;49.080;11.896;2023-02-13T05:25:08;66.60;;;18.67;;
33266;SDS011;19638;49.080;11.896;2023-02-13T05:29:14;71.93;;;19.47;;
33266;SDS011;19638;49.080;11.896;2023-02-13T05:33:26;69.17;;;19.93;;
33266;SDS011;19638;49.080;11.896;2023-02-13T05:37:30;67.20;;;19.53;;
33266;SDS011;19638;49.080;11.896;2023-02-13T05:41:33;72.63;;;20.33;;
33266;SDS011;19638;49.080;11.896;2023-02-13T05:45:37;59.27;;;19.23;;
33266;SDS011;19638;49.080;11.896;2023-02-13T05:49:40;68.30;;;19.53;;
33266;SDS011;19638;49.080;11.896;2023-02-13T05:53:50;71.10;;;19.27;;
33266;SDS011;19638;49.080;11.896;2023-02-13T05:57:56;64.43;;;20.03;;
33266;SDS011;19638;49.080;11.896;2023-02-13T06:01:59;60.13;;;18.00;;
33266;SDS011;19638;49.080;11.896;2023-02-13T06:06:03;63.03;;;18.33;;
33266;SDS011;19638;49.080;11.896;2023-02-13T06:10:14;70.13;;;20.27;;
33266;SDS011;19638;49.080;11.896;2023-02-13T06:14:20;73.63;;;26.63;;
33266;SDS011;19638;49.080;11.896;2023-02-13T06:18:25;57.57;;;17.93;;
33266;SDS011;19638;49.080;11.896;2023-02-13T06:22:31;59.00;;;17.80;;
33266;SDS011;19638;49.080;11.896;2023-02-13T06:26:36;59.43;;;19.57;;
33266;SDS011;19638;49.080;11.896;2023-02-13T06:30:39;77.10;;;25.30;;
33266;SDS011;19638;49.080;11.896;2023-02-13T06:34:42;73.43;;;23.30;;
33266;SDS011;19638;49.080;11.896;2023-02-13T06:38:45;59.90;;;18.73;;
33266;SDS011;19638;49.080;11.896;2023-02-13T06:42:56;61.67;;;20.17;;
33266;SDS011;19638;49.080;11.896;2023-02-13T06:46:59;71.77;;;21.10;;
33266;SDS011;19638;49.080;11.896;2023-02-13T06:51:02;69.90;;;18.93;;
33266;SDS011;19638;49.080;11.896;2023-02-13T06:55:06;71.10;;;22.50;;
33266;SDS011;19638;49.080;11.896;2023-02-13T06:59:12;64.10;;;19.00;;
33266;SDS011;19638;49.080;11.896;2023-02-13T07:03:15;63.07;;;19.17;;
33266;SDS011;19638;49.080;11.896;2023-02-13T07:07:21;63.60;;;19.07;;
33266;SDS011;19638;49.080;11.896;2023-02-13T07:11:25;80.37;;;23.17;;
33266;SDS011;19638;49.080;11.896;2023-02-13T07:15:33;69.20;;;21.17;;
33266;SDS011;19638;49.080;11.896;2023-02-13T07:19:38;64.10;;;19.47;;
33266;SDS011;19638;49.080;11.896;2023-02-13T07:23:43;58.87;;;18.23;;
33266;SDS011;19638;49.080;11.896;2023-02-13T07:27:46;71.93;;;19.60;;
33266;SDS011;19638;49.080;11.896;2023-02-13T07:31:51;55.93;;;19.87;;
33266;SDS011;19638;49.080;11.896;2023-02-13T07:35:54;74.50;;;23.30;;
33266;SDS011;19638;49.080;11.896;2023-02-13T07:40:00;65.57;;;20.03;;
33266;SDS011;19638;49.080;11.896;2023-02-13T07:44:06;62.33;;;20.27;;
33266;SDS011;19638;49.080;11.896;2023-02-13T07:48:11;61.83;;;20.57;;
33266;SDS011;19638;49.080;11.896;2023-02-13T07:52:14;60.33;;;20.30;;
33266;SDS011;19638;49.080;11.896;2023-02-13T07:56:17;76.70;;;23.80;;
33266;SDS011;19638;49.080;11.896;2023-02-13T08:00:20;68.07;;;21.03;;
33266;SDS011;19638;49.080;11.896;2023-02-13T08:04:26;66.87;;;21.93;;
33266;SDS011;19638;49.080;11.896;2023-02-13T08:08:29;57.97;;;20.17;;
33266;SDS011;19638;49.080;11.896;2023-02-13T08:12:34;67.90;;;21.27;;
33266;SDS011;19638;49.080;11.896;2023-02-13T08:16:37;65.47;;;22.90;;
33266;SDS011;19638;49.080;11.896;2023-02-13T08:20:44;59.57;;;21.20;;
33266;SDS011;19638;49.080;11.896;2023-02-13T08:24:47;68.00;;;21.37;;
33266;SDS011;19638;49.080;11.896;2023-02-13T08:28:52;52.50;;;22.50;;
33266;SDS011;19638;49.080;11.896;2023-02-13T08:33:01;58.27;;;20.67;;
33266;SDS011;19638;49.080;11.896;2023-02-13T08:37:05;59.50;;;19.67;;
33266;SDS011;19638;49.080;11.896;2023-02-13T08:41:09;59.27;;;19.77;;
33266;SDS011;19638;49.080;11.896;2023-02-13T08:45:14;48.60;;;19.27;;
33266;SDS011;19638;49.080;11.896;2023-02-13T08:49:17;51.47;;;18.60;;
33266;SDS011;19638;49.080;11.896;2023-02-13T08:53:24;52.30;;;19.13;;
33266;SDS011;19638;49.080;11.896;2023-02-13T08:57:27;53.07;;;19.40;;
33266;SDS011;19638;49.080;11.896;2023-02-13T09:01:31;53.70;;;19.93;;
33266;SDS011;19638;49.080;11.896;2023-02-13T09:05:39;47.23;;;18.60;;
33266;SDS011;19638;49.080;11.896;2023-02-13T09:09:43;51.50;;;19.13;;
33266;SDS011;19638;49.080;11.896;2023-02-13T09:13:46;43.43;;;17.03;;
33266;SDS011;19638;49.080;11.896;2023-02-13T09:17:50;48.57;;;19.53;;
33266;SDS011;19638;49.080;11.896;2023-02-13T09:21:54;45.17;;;17.33;;
33266;SDS011;19638;49.080;11.896;2023-02-13T09:26:03;52.63;;;19.73;;
33266;SDS011;19638;49.080;11.896;2023-02-13T09:30:12;49.57;;;18.93;;
33266;SDS011;19638;49.080;11.896;2023-02-13T09:34:23;55.60;;;21.80;;
33266;SDS011;19638;49.080;11.896;2023-02-13T09:38:26;48.80;;;21.43;;
33266;SDS011;19638;49.080;11.896;2023-02-13T09:42:32;56.80;;;24.17;;
33266;SDS011;19638;49.080;11.896;2023-02-13T09:46:42;56.77;;;23.90;;
33266;SDS011;19638;49.080;11.896;2023-02-13T09:50:46;53.33;;;23.57;;
33266;SDS011;19638;49.080;11.896;2023-02-13T09:54:54;50.53;;;23.53;;
33266;SDS011;19638;49.080;11.896;2023-02-13T09:59:01;46.23;;;20.40;;
33266;SDS011;19638;49.080;11.896;2023-02-13T10:03:20;41.47;;;19.33;;
33266;SDS011;19638;49.080;11.896;2023-02-13T10:07:31;48.73;;;20.20;;
33266;SDS011;19638;49.080;11.896;2023-02-13T10:11:49;47.03;;;20.33;;
33266;SDS011;19638;49.080;11.896;2023-02-13T10:16:13;39.47;;;19.00;;
33266;SDS011;19638;49.080;11.896;2023-02-13T10:20:24;41.10;;;19.67;;
33266;SDS011;19638;49.080;11.896;2023-02-13T10:24:35;37.93;;;19.67;;
33266;SDS011;19638;49.080;11.896;2023-02-13T10:28:43;41.70;;;19.73;;
33266;SDS011;19638;49.080;11.896;2023-02-13T10:33:16;39.17;;;19.43;;
33266;SDS011;19638;49.080;11.896;2023-02-13T10:37:22;37.87;;;18.07;;
33266;SDS011;19638;49.080;11.896;2023-02-13T10:41:29;36.20;;;18.10;;
33266;SDS011;19638;49.080;11.896;2023-02-13T10:45:48;34.13;;;17.30;;
33266;SDS011;19638;49.080;11.896;2023-02-13T10:50:10;31.43;;;16.97;;
33266;SDS011;19638;49.080;11.896;2023-02-13T10:54:25;30.20;;;16.67;;
33266;SDS011;19638;49.080;11.896;2023-02-13T10:58:52;35.73;;;17.50;;
33266;SDS011;19638;49.080;11.896;2023-02-13T11:03:01;31.60;;;16.90;;
33266;SDS011;19638;49.080;11.896;2023-02-13T11:07:10;30.30;;;16.13;;
33266;SDS011;19638;49.080;11.896;2023-02-13T11:11:29;28.37;;;15.00;;
33266;SDS011;19638;49.080;11.896;2023-02-13T11:15:39;27.07;;;15.93;;
33266;SDS011;19638;49.080;11.896;2023-02-13T11:19:45;30.48;;;16.60;;
33266;SDS011;19638;49.080;11.896;2023-02-13T11:23:53;26.00;;;14.87;;
33266;SDS011;19638;49.080;11.896;2023-02-13T11:28:06;28.13;;;15.50;;
33266;SDS011;19638;49.080;11.896;2023-02-13T11:32:17;28.17;;;15.20;;
33266;SDS011;19638;49.080;11.896;2023-02-13T11:36:24;31.88;;;16.50;;
33266;SDS011;19638;49.080;11.896;2023-02-13T11:40:32;26.73;;;15.85;;
33266;SDS011;19638;49.080;11.896;2023-02-13T11:44:36;27.33;;;15.10;;
33266;SDS011;19638;49.080;11.896;2023-02-13T11:48:41;24.73;;;14.23;;
33266;SDS011;19638;49.080;11.896;2023-02-13T11:52:50;27.30;;;14.77;;
33266;SDS011;19638;49.080;11.896;2023-02-13T11:56:58;26.13;;;15.07;;
33266;SDS011;19638;49.080;11.896;2023-02-13T12:01:08;25.83;;;13.20;;
33266;SDS011;19638;49.080;11.896;2023-02-13T12:05:23;20.63;;;12.77;;
33266;SDS011;19638;49.080;11.896;2023-02-13T12:09:27;19.92;;;11.63;;
33266;SDS011;19638;49.080;11.896;2023-02-13T12:13:34;19.73;;;12.10;;
33266;SDS011;19638;49.080;11.896;2023-02-13T12:17:40;17.90;;;10.97;;
33266;SDS011;19638;49.080;11.896;2023-02-13T12:21:58;20.45;;;11.95;;
33266;SDS011;19638;49.080;11.896;2023-02-13T12:26:17;21.35;;;11.30;;
33266;SDS011;19638;49.080;11.896;2023-02-13T12:39:49;18.30;;;11.48;;
33266;SDS011;19638;49.080;11.896;2023-02-13T12:44:27;23.80;;;11.70;;
33266;SDS011;19638;49.080;11.896;2023-02-13T12:48:47;21.67;;;12.00;;
33266;SDS011;19638;49.080;11.896;2023-02-13T12:57:39;18.33;;;10.77;;
33266;SDS011;19638;49.080;11.896;2023-02-13T13:01:58;16.85;;;9.75;;
33266;SDS011;19638;49.080;11.896;2023-02-13T13:06:38;20.15;;;11.60;;
33266;SDS011;19638;49.080;11.896;2023-02-13T13:10:53;16.42;;;8.82;;
33266;SDS011;19638;49.080;11.896;2023-02-13T13:15:10;13.90;;;8.68;;
33266;SDS011;19638;49.080;11.896;2023-02-13T13:19:24;12.07;;;8.13;;
33266;SDS011;19638;49.080;11.896;2023-02-13T13:23:36;14.05;;;9.20;;
33266;SDS011;19638;49.080;11.896;2023-02-13T13:27:44;12.68;;;8.70;;
33266;SDS011;19638;49.080;11.896;2023-02-13T13:31:54;15.13;;;9.75;;
33266;SDS011;19638;49.080;11.896;2023-02-13T13:36:04;18.48;;;10.15;;
33266;SDS011;19638;49.080;11.896;2023-02-13T13:40:21;12.82;;;7.65;;
33266;SDS011;19638;49.080;11.896;2023-02-13T13:44:51;8.38;;;6.25;;
33266;SDS011;19638;49.080;11.896;2023-02-13T13:49:15;6.07;;;4.95;;
33266;SDS011;19638;49.080;11.896;2023-02-13T13:53:28;8.30;;;5.80;;
33266;SDS011;19638;49.080;11.896;2023-02-13T14:11:30;10.43;;;7.05;;
33266;SDS011;19638;49.080;11.896;2023-02-13T14:15:51;8.70;;;6.05;;
33266;SDS011;19638;49.080;11.896;2023-02-13T14:19:55;9.80;;;7.10;;
33266;SDS011;19638;49.080;11.896;2023-02-13T14:24:10;9.65;;;6.40;;
33266;SDS011;19638;49.080;11.896;2023-02-13T14:28:19;9.35;;;6.88;;
33266;SDS011;19638;49.080;11.896;2023-02-13T14:32:26;9.35;;;6.18;;
33266;SDS011;19638;49.080;11.896;2023-02-13T14:36:33;10.68;;;6.55;;
33266;SDS011;19638;49.080;11.896;2023-02-13T14:40:43;9.82;;;7.18;;
33266;SDS011;19638;49.080;11.896;2023-02-13T14:44:49;11.05;;;6.70;;
33266;SDS011;19638;49.080;11.896;2023-02-13T14:48:55;8.70;;;6.05;;
33266;SDS011;19638;49.080;11.896;2023-02-13T14:53:06;8.30;;;5.63;;
33266;SDS011;19638;49.080;11.896;2023-02-13T14:57:19;8.77;;;6.00;;
33266;SDS011;19638;49.080;11.896;2023-02-13T15:01:27;8.32;;;5.80;;
33266;SDS011;19638;49.080;11.896;2023-02-13T15:05:35;10.60;;;7.03;;
33266;SDS011;19638;49.080;11.896;2023-02-13T15:09:40;13.40;;;6.43;;
33266;SDS011;19638;49.080;11.896;2023-02-13T15:13:51;12.20;;;6.80;;
33266;SDS011;19638;49.080;11.896;2023-02-13T15:17:55;16.60;;;9.23;;
33266;SDS011;19638;49.080;11.896;2023-02-13T15:22:05;13.53;;;7.57;;
33266;SDS011;19638;49.080;11.896;2023-02-13T15:26:17;14.83;;;7.70;;
33266;SDS011;19638;49.080;11.896;2023-02-13T15:30:26;18.92;;;9.82;;
33266;SDS011;19638;49.080;11.896;2023-02-13T15:34:31;13.37;;;8.13;;
33266;SDS011;19638;49.080;11.896;2023-02-13T15:38:37;15.43;;;8.30;;
33266;SDS011;19638;49.080;11.896;2023-02-13T15:42:43;14.30;;;8.20;;
33266;SDS011;19638;49.080;11.896;2023-02-13T15:46:48;14.15;;;8.80;;
33266;SDS011;19638;49.080;11.896;2023-02-13T15:50:55;12.47;;;7.50;;
33266;SDS011;19638;49.080;11.896;2023-02-13T15:55:00;11.60;;;7.23;;
33266;SDS011;19638;49.080;11.896;2023-02-13T15:59:03;24.00;;;13.20;;
33266;SDS011;19638;49.080;11.896;2023-02-13T16:03:12;19.20;;;10.80;;
33266;SDS011;19638;49.080;11.896;2023-02-13T16:07:18;13.80;;;8.60;;
33266;SDS011;19638;49.080;11.896;2023-02-13T16:11:29;16.80;;;8.50;;
33266;SDS011;19638;49.080;11.896;2023-02-13T16:15:37;25.20;;;14.70;;
33266;SDS011;19638;49.080;11.896;2023-02-13T16:19:50;19.83;;;10.43;;
33266;SDS011;19638;49.080;11.896;2023-02-13T16:23:58;17.47;;;9.90;;
33266;SDS011;19638;49.080;11.896;2023-02-13T16:28:13;19.00;;;10.20;;
33266;SDS011;19638;49.080;11.896;2023-02-13T16:32:21;21.43;;;10.73;;
33266;SDS011;19638;49.080;11.896;2023-02-13T16:36:30;21.47;;;11.60;;
33266;SDS011;19638;49.080;11.896;2023-02-13T16:40:37;17.67;;;10.47;;
33266;SDS011;19638;49.080;11.896;2023-02-13T16:44:41;17.27;;;9.50;;
33266;SDS011;19638;49.080;11.896;2023-02-13T16:49:00;14.57;;;9.67;;
33266;SDS011;19638;49.080;11.896;2023-02-13T16:53:17;18.63;;;10.47;;
33266;SDS011;19638;49.080;11.896;2023-02-13T16:57:25;19.90;;;10.57;;
33266;SDS011;19638;49.080;11.896;2023-02-13T17:01:31;21.60;;;11.37;;
33266;SDS011;19638;49.080;11.896;2023-02-13T17:05:38;15.73;;;9.23;;
33266;SDS011;19638;49.080;11.896;2023-02-13T17:09:44;15.33;;;8.00;;
33266;SDS011;19638;49.080;11.896;2023-02-13T17:13:54;15.60;;;9.20;;
33266;SDS011;19638;49.080;11.896;2023-02-13T17:17:57;19.03;;;9.80;;
33266;SDS011;19638;49.080;11.896;2023-02-13T17:22:01;20.63;;;11.10;;
33266;SDS011;19638;49.080;11.896;2023-02-13T17:26:07;15.27;;;9.13;;
33266;SDS011;19638;49.080;11.896;2023-02-13T17:30:11;15.53;;;8.37;;
33266;SDS011;19638;49.080;11.896;2023-02-13T17:34:16;20.40;;;13.10;;
33266;SDS011;19638;49.080;11.896;2023-02-13T17:38:19;113.93;;;57.77;;
33266;SDS011;19638;49.080;11.896;2023-02-13T17:42:25;19.00;;;11.40;;
33266;SDS011;19638;49.080;11.896;2023-02-13T17:46:29;24.37;;;17.03;;
33266;SDS011;19638;49.080;11.896;2023-02-13T17:50:34;16.90;;;11.77;;
33266;SDS011;19638;49.080;11.896;2023-02-13T17:54:39;18.90;;;11.97;;
33266;SDS011;19638;49.080;11.896;2023-02-13T17:58:43;15.27;;;9.57;;
33266;SDS011;19638;49.080;11.896;2023-02-13T18:02:48;15.17;;;9.00;;
33266;SDS011;19638;49.080;11.896;2023-02-13T18:06:54;14.77;;;8.63;;
33266;SDS011;19638;49.080;11.896;2023-02-13T18:11:01;15.43;;;9.60;;
33266;SDS011;19638;49.080;11.896;2023-02-13T18:15:11;19.63;;;10.27;;
33266;SDS011;19638;49.080;11.896;2023-02-13T18:19:17;19.53;;;10.07;;
33266;SDS011;19638;49.080;11.896;2023-02-13T18:23:21;29.40;;;13.73;;
33266;SDS011;19638;49.080;11.896;2023-02-13T18:27:27;20.87;;;12.20;;
33266;SDS011;19638;49.080;11.896;2023-02-13T18:31:32;19.40;;;12.27;;
33266;SDS011;19638;49.080;11.896;2023-02-13T18:35:35;16.37;;;10.03;;
33266;SDS011;19638;49.080;11.896;2023-02-13T18:39:38;19.70;;;9.93;;
33266;SDS011;19638;49.080;11.896;2023-02-13T18:43:44;20.30;;;10.37;;
33266;SDS011;19638;49.080;11.896;2023-02-13T18:47:48;16.07;;;10.20;;
33266;SDS011;19638;49.080;11.896;2023-02-13T18:51:51;21.27;;;11.30;;
33266;SDS011;19638;49.080;11.896;2023-02-13T18:55:58;21.97;;;11.60;;
33266;SDS011;19638;49.080;11.896;2023-02-13T19:00:02;19.97;;;10.20;;
33266;SDS011;19638;49.080;11.896;2023-02-13T19:04:09;21.13;;;11.30;;
33266;SDS011;19638;49.080;11.896;2023-02-13T19:08:18;18.97;;;10.77;;
33266;SDS011;19638;49.080;11.896;2023-02-13T19:12:23;17.27;;;10.60;;
33266;SDS011;19638;49.080;11.896;2023-02-13T19:16:27;21.57;;;10.97;;
33266;SDS011;19638;49.080;11.896;2023-02-13T19:20:33;20.37;;;10.83;;
33266;SDS011;19638;49.080;11.896;2023-02-13T19:24:38;30.87;;;14.40;;
33266;SDS011;19638;49.080;11.896;2023-02-13T19:28:42;22.87;;;12.27;;
33266;SDS011;19638;49.080;11.896;2023-02-13T19:32:45;24.83;;;12.83;;
33266;SDS011;19638;49.080;11.896;2023-02-13T19:36:53;26.73;;;14.43;;
33266;SDS011;19638;49.080;11.896;2023-02-13T19:41:01;27.30;;;14.83;;
33266;SDS011;19638;49.080;11.896;2023-02-13T19:45:05;28.97;;;15.70;;
33266;SDS011;19638;49.080;11.896;2023-02-13T19:49:10;33.33;;;16.80;;
33266;SDS011;19638;49.080;11.896;2023-02-13T19:53:15;39.23;;;17.43;;
33266;SDS011;19638;49.080;11.896;2023-02-13T19:57:18;35.63;;;18.20;;
33266;SDS011;19638;49.080;11.896;2023-02-13T20:01:23;34.70;;;17.50;;
33266;SDS011;19638;49.080;11.896;2023-02-13T20:05:28;36.20;;;18.10;;
33266;SDS011;19638;49.080;11.896;2023-02-13T20:09:35;37.63;;;18.40;;
33266;SDS011;19638;49.080;11.896;2023-02-13T20:13:39;43.27;;;19.70;;
33266;SDS011;19638;49.080;11.896;2023-02-13T20:17:46;37.80;;;18.83;;
33266;SDS011;19638;49.080;11.896;2023-02-13T20:21:52;47.93;;;19.40;;
33266;SDS011;19638;49.080;11.896;2023-02-13T20:26:04;39.67;;;18.47;;
33266;SDS011;19638;49.080;11.896;2023-02-13T20:30:12;41.00;;;19.50;;
33266;SDS011;19638;49.080;11.896;2023-02-13T20:34:21;37.90;;;19.20;;
33266;SDS011;19638;49.080;11.896;2023-02-13T20:38:24;41.40;;;19.23;;
33266;SDS011;19638;49.080;11.896;2023-02-13T20:42:32;35.90;;;18.73;;
33266;SDS011;19638;49.080;11.896;2023-02-13T20:46:37;434.17;;;247.97;;
33266;SDS011;19638;49.080;11.896;2023-02-13T20:50:42;101.17;;;44.47;;
33266;SDS011;19638;49.080;11.896;2023-02-13T20:54:45;519.20;;;211.63;;
33266;SDS011;19638;49.080;11.896;2023-02-13T20:58:55;245.97;;;101.33;;
33266;SDS011;19638;49.080;11.896;2023-02-13T21:02:59;74.37;;;35.43;;
33266;SDS011;19638;49.080;11.896;2023-02-13T21:07:03;147.90;;;64.37;;
33266;SDS011;19638;49.080;11.896;2023-02-13T21:11:12;108.70;;;54.80;;
33266;SDS011;19638;49.080;11.896;2023-02-13T21:15:18;47.67;;;22.00;;
33266;SDS011;19638;49.080;11.896;2023-02-13T21:19:24;262.13;;;159.00;;
33266;SDS011;19638;49.080;11.896;2023-02-13T21:23:27;62.23;;;33.70;;
33266;SDS011;19638;49.080;11.896;2023-02-13T21:27:30;61.93;;;32.70;;
33266;SDS011;19638;49.080;11.896;2023-02-13T21:31:35;50.23;;;25.40;;
33266;SDS011;19638;49.080;11.896;2023-02-13T21:35:41;42.80;;;21.03;;
33266;SDS011;19638;49.080;11.896;2023-02-13T21:39:44;57.23;;;24.17;;
33266;SDS011;19638;49.080;11.896;2023-02-13T21:43:48;65.87;;;37.80;;
33266;SDS011;19638;49.080;11.896;2023-02-13T21:47:59;53.67;;;26.00;;
33266;SDS011;19638;49.080;11.896;2023-02-13T21:52:02;71.83;;;35.60;;
33266;SDS011;19638;49.080;11.896;2023-02-13T21:56:06;55.50;;;24.33;;
33266;SDS011;19638;49.080;11.896;2023-02-13T22:00:14;77.83;;;39.73;;
33266;SDS011;19638;49.080;11.896;2023-02-13T22:04:25;55.57;;;28.17;;
33266;SDS011;19638;49.080;11.896;2023-02-13T22:08:28;73.87;;;40.40;;
33266;SDS011;19638;49.080;11.896;2023-02-13T22:12:31;49.83;;;23.13;;
33266;SDS011;19638;49.080;11.896;2023-02-13T22:16:35;49.67;;;21.70;;
33266;SDS011;19638;49.080;11.896;2023-02-13T22:20:46;48.17;;;22.13;;
33266;SDS011;19638;49.080;11.896;2023-02-13T22:24:49;49.47;;;21.10;;
33266;SDS011;19638;49.080;11.896;2023-02-13T22:28:52;42.53;;;19.80;;
33266;SDS011;19638;49.080;11.896;2023-02-13T22:32:56;52.07;;;21.30;;
33266;SDS011;19638;49.080;11.896;2023-02-13T22:37:00;49.37;;;21.20;;
33266;SDS011;19638;49.080;11.896;2023-02-13T22:41:07;49.43;;;21.57;;
33266;SDS011;19638;49.080;11.896;2023-02-13T22:45:14;45.60;;;20.17;;
33266;SDS011;19638;49.080;11.896;2023-02-13T22:49:18;43.10;;;19.23;;
33266;SDS011;19638;49.080;11.896;2023-02-13T22:53:27;48.23;;;21.70;;
33266;SDS011;19638;49.080;11.896;2023-02-13T22:57:31;56.27;;;24.13;;
33266;SDS011;19638;49.080;11.896;2023-02-13T23:01:35;50.03;;;22.03;;
33266;SDS011;19638;49.080;11.896;2023-02-13T23:05:42;46.63;;;20.13;;
33266;SDS011;19638;49.080;11.896;2023-02-13T23:09:48;48.30;;;20.40;;
33266;SDS011;19638;49.080;11.896;2023-02-13T23:13:52;47.93;;;20.60;;
33266;SDS011;19638;49.080;11.896;2023-02-13T23:17:55;50.53;;;20.87;;
33266;SDS011;19638;49.080;11.896;2023-02-13T23:22:19;46.00;;;20.03;;
33266;SDS011;19638;49.080;11.896;2023-02-13T23:26:27;53.03;;;23.53;;
33266;SDS011;19638;49.080;11.896;2023-02-13T23:30:33;56.30;;;22.50;;
33266;SDS011;19638;49.080;11.896;2023-02-13T23:34:44;50.63;;;21.77;;
33266;SDS011;19638;49.080;11.896;2023-02-13T23:38:50;50.23;;;20.47;;
33266;SDS011;19638;49.080;11.896;2023-02-13T23:42:54;48.33;;;19.27;;
33266;SDS011;19638;49.080;11.896;2023-02-13T23:47:03;45.63;;;20.07;;
33266;SDS011;19638;49.080;11.896;2023-02-13T23:51:10;49.57;;;20.10;;
33266;SDS011;19638;49.080;11.896;2023-02-13T23:55:14;50.13;;;20.67;;
33266;SDS011;19638;49.080;11.896;2023-02-13T23:59:19;48.27;;;20.23;;
